Latest Coastal Weather Observations for Proserpine

IDQ60701

Issued at 2:21 pm EST Thursday 2 April 2015 (issued every 10 minutes, with the page automatically refreshed every 10 minutes)

About coastal observations | Map of coastal stations | Coastal observations for QLD | Marine services | Other Formats
Station Details ID: 033247 Name: PROSERPINE AIRPORT Lat: -20.49 Lon: 148.56 Height: 19.7 m
Data from the previous 72 hours. | See also: Recent months at Proserpine
Date/Time
EST
Temp

°C
Wind Pressure Rain
since 9am
mm
Weather Cloud Vis
km
Sea
Height
m
Swell
Dir
 
Speed
knots
Gust
knots
hPa Trend Height
m
Period
s
Dir
02/02:00pm 29.8 E 13 17 1011.3 - 0.0 - - 10 - - - -
02/01:30pm 29.3 SE 15 20 1011.5 - 0.0 - - 10 - - - -
02/01:00pm 29.3 ESE 12 17 1012.0 - 0.0 - - 10 - - - -
02/12:30pm 29.5 ESE 14 20 1012.5 - 0.0 - - 10 - - - -
02/12:00pm 29.3 ESE 14 19 1012.7 - 0.0 - - 10 - - - -
02/11:30am 29.2 SE 12 17 1013.3 - 0.0 - - 10 - - - -
02/11:00am 27.7 ESE 11 17 1013.7 - 0.0 - Partly cloudy 10 - - - -
02/10:30am 27.8 ESE 11 15 1014.1 - 0.0 - Partly cloudy 10 - - - -
02/10:00am 28.9 SE 12 17 1014.2 - 0.0 - Partly cloudy 10 - - - -
02/09:30am 28.0 SE 12 17 1014.4 - 0.0 - Partly cloudy 10 - - - -
02/09:00am 26.7 ESE 11 15 1014.5 - 0.2 - Cloudy 10 - - - -
02/08:30am 25.9 SE 13 18 1014.4 - 0.2 - Partly cloudy 10 - - - -
02/08:27am 26.1 SE 12 17 1014.4 - 0.2 - Partly cloudy 10 - - - -
02/08:10am 25.1 SSE 10 13 1014.2 - 0.2 - Partly cloudy 10 - - - -
02/08:00am 25.0 SSE 9 13 1014.0 - 0.2 - Partly cloudy 10 - - - -
02/07:30am 23.9 SSE 7 10 1013.8 - 0.2 - Partly cloudy 10 - - - -
02/07:00am 22.3 SSE 5 7 1013.5 - 0.2 - Partly cloudy 10 - - - -
02/06:30am 21.1 S 5 6 1013.3 - 0.2 - Partly cloudy 10 - - - -
02/06:00am 20.4 S 1 5 1013.0 - 0.2 - Cloudy 10 - - - -
02/05:30am 19.5 CALM 0 0 1012.8 - 0.2 - Partly cloudy 10 - - - -
02/05:00am 19.7 SW 3 4 1012.3 - 0.2 - - 10 - - - -
02/04:30am 20.2 SE 3 5 1012.3 - 0.2 - - 10 - - - -
02/04:00am 20.5 S 4 5 1012.2 - 0.2 - - 10 - - - -
02/03:30am 21.0 S 3 3 1012.3 - 0.2 - Partly cloudy 10 - - - -
02/03:00am 20.9 SSE 4 5 1012.4 - 0.2 - Mostly clear 10 - - - -
02/02:30am 21.4 S 5 7 1012.5 - 0.2 - Partly cloudy 10 - - - -
02/02:00am 21.2 S 6 7 1012.7 - 0.2 - - 10 - - - -
02/01:30am 21.0 SSW 4 5 1012.9 - 0.2 - Partly cloudy 10 - - - -
02/01:00am 21.4 S 5 6 1013.2 - 0.2 - Partly cloudy 10 - - - -
02/12:30am 21.4 SSW 3 4 1013.8 - 0.2 - Partly cloudy 10 - - - -
02/12:00am 21.6 SSW 6 7 1014.0 - 0.2 - Partly cloudy 10 - - - -
 
Date/Time
EST
Temp

°C
Wind Pressure Rain
since 9am
mm
Weather Cloud Vis
km
Sea
Height
m
Swell
Dir
 
Speed
knots
Gust
knots
hPa Trend Height
m
Period
s
Dir
01/11:57pm 21.6 S 6 7 1014.1 - 0.2 - Partly cloudy 10 - - - -
01/11:34pm 22.1 S 6 8 1014.2 - 0.2 - Partly cloudy 10 - - - -
01/11:30pm 21.9 S 5 7 1014.3 - 0.2 - Partly cloudy 10 - - - -
01/11:00pm 22.3 S 8 11 1014.5 - 0.2 - - 10 - - - -
01/10:30pm 22.8 SSE 9 13 1014.7 - 0.2 - Partly cloudy 10 - - - -
01/10:00pm 22.8 SSE 7 9 1014.9 - 0.2 - - 10 - - - -
01/09:30pm 23.2 SSE 7 9 1014.8 - 0.2 - - 10 - - - -
01/09:00pm 23.9 SE 12 15 1014.8 - 0.2 - - 10 - - - -
01/08:30pm 24.2 SE 9 13 1014.4 - 0.2 - - 10 - - - -
01/08:00pm 24.6 SSE 9 13 1014.0 - 0.2 - - 10 - - - -
01/07:30pm 25.0 ESE 9 13 1013.5 - 0.2 - - 10 - - - -
01/07:00pm 24.9 ESE 8 10 1013.1 - 0.2 - - 10 - - - -
01/06:30pm 24.7 ESE 6 8 1012.9 - 0.2 - - 10 - - - -
01/06:00pm 25.5 ESE 7 10 1012.7 - 0.2 - - 10 - - - -
01/05:30pm 26.0 ESE 9 12 1012.4 - 0.2 - - 10 - - - -
01/05:00pm 27.3 ESE 10 14 1012.2 - 0.2 - - 10 - - - -
01/04:30pm 27.4 ESE 14 19 1012.0 - 0.2 - - 10 - - - -
01/04:00pm 27.9 ESE 11 16 1011.8 - 0.2 - - 10 - - - -
01/03:30pm 27.8 ESE 14 18 1012.0 - 0.2 - Partly cloudy 10 - - - -
01/03:00pm 28.5 ESE 13 19 1012.3 - 0.2 - Partly cloudy 10 - - - -
01/02:30pm 29.0 ESE 13 19 1012.5 - 0.2 - - 10 - - - -
01/02:00pm 28.9 ESE 14 18 1012.8 - 0.2 - Partly cloudy 10 - - - -
01/01:30pm 27.9 E 11 17 1013.3 - 0.2 - Partly cloudy 10 - - - -
01/01:00pm 27.9 ESE 14 22 1013.7 - 0.2 - Partly cloudy 10 - - - -
01/12:30pm 26.5 SE 8 12 1014.3 - 0.2 - Partly cloudy 10 - - - -
01/12:00pm 25.6 ESE 14 22 1015.0 - 0.2 - Cloudy 10 - - - -
01/11:30am 26.8 SE 16 20 1015.3 - 0.2 - Partly cloudy 10 - - - -
01/11:00am 26.6 ESE 16 21 1015.7 - 0.2 - Partly cloudy 10 - - - -
01/10:30am 28.5 SE 17 23 1015.8 - 0.2 - Partly cloudy 10 - - - -
01/10:00am 28.2 SE 16 21 1016.0 - 0.2 - - 10 - - - -
01/09:30am 27.8 SE 15 21 1016.2 - 0.0 - Partly cloudy 10 - - - -
01/09:00am 25.9 SSE 10 16 1016.4 - 1.2 - Cloudy 10 - - - -
01/08:30am 25.6 SSE 13 18 1016.3 - 1.2 - Partly cloudy 10 - - - -
01/08:00am 24.7 SSE 12 19 1016.0 - 1.2 - Partly cloudy 10 - - - -
01/07:30am 24.6 SSE 10 14 1015.7 - 1.2 - Partly cloudy 10 - - - -
01/07:00am 22.9 S 7 10 1015.4 - 1.2 - Partly cloudy 10 - - - -
01/06:30am 21.4 S 5 7 1015.1 - 1.2 - - 10 - - - -
01/06:00am 22.2 S 6 8 1014.8 - 1.2 - - 10 - - - -
01/05:30am 22.3 S 8 11 1014.6 - 1.2 - - 10 - - - -
01/05:00am 22.2 S 8 11 1014.4 - 1.2 - - 10 - - - -
01/04:30am 22.2 S 8 12 1014.0 - 1.2 - - 10 - - - -
01/04:00am 22.2 S 9 12 1014.0 - 1.2 - - 10 - - - -
01/03:30am 22.4 S 7 10 1013.9 - 1.2 - - 10 - - - -
01/03:00am 22.4 S 8 11 1014.1 - 1.2 - - 10 - - - -
01/02:30am 22.4 SSE 10 13 1014.2 - 1.2 - - 10 - - - -
01/02:00am 22.3 SSE 8 11 1014.8 - 1.2 - - 10 - - - -
01/01:30am 22.4 SSE 9 12 1015.2 - 1.2 - Partly cloudy 10 - - - -
01/01:00am 22.5 SSE 10 13 1015.7 - 1.2 - - 10 - - - -
01/12:30am 22.4 S 7 9 1016.2 - 1.2 - - 10 - - - -
01/12:00am 22.5 SSE 8 11 1016.6 - 1.2 - Cloudy 10 - - - -
 
Date/Time
EST
Temp

°C
Wind Pressure Rain
since 9am
mm
Weather Cloud Vis
km
Sea
Height
m
Swell
Dir
 
Speed
knots
Gust
knots
hPa Trend Height
m
Period
s
Dir
31/11:30pm 22.8 SSE 10 13 1016.9 - 1.2 - Partly cloudy 10 - - - -
31/11:00pm 23.1 SE 9 13 1016.9 - 1.2 - Partly cloudy 10 - - - -
31/10:30pm 23.4 SSE 8 12 1017.1 - 1.2 - Partly cloudy 10 - - - -
31/10:00pm 22.9 SE 10 15 1017.0 - 1.2 - Partly cloudy 10 - - - -
31/09:30pm 23.7 S 6 8 1016.9 - 0.6 - - 10 - - - -
31/09:00pm 24.0 S 6 9 1016.9 - 0.6 - Partly cloudy 10 - - - -
31/08:30pm 23.8 SSW 6 8 1016.7 - 0.6 - Partly cloudy 10 - - - -
31/08:00pm 23.3 S 6 6 1016.4 - 0.6 - Partly cloudy 10 - - - -
31/07:30pm 23.4 SE 7 11 1016.2 - 0.6 - Partly cloudy 10 - - - -
31/07:00pm 22.4 ESE 7 10 1015.7 - 0.6 - Partly cloudy 10 - - - -
31/06:40pm 23.8 ESE 9 23 1015.5 - 0.6 - Partly cloudy 10 - - - -
31/06:30pm 25.3 ESE 7 11 1015.4 - 0.6 - Partly cloudy 10 - - - -
31/06:00pm 25.7 ESE 12 17 1015.1 - 0.6 - Cloudy 10 - - - -
31/05:30pm 26.0 ESE 9 13 1014.8 - 0.6 - Partly cloudy 10 - - - -
31/05:00pm 27.2 SE 13 19 1014.4 - 0.6 - Partly cloudy 10 - - - -
31/04:30pm 27.6 SE 12 16 1014.1 - 0.6 - Partly cloudy 10 - - - -
31/04:00pm 28.2 ESE 14 19 1014.1 - 0.6 - Partly cloudy 10 - - - -
31/03:30pm 28.8 ESE 15 21 1014.1 - 0.6 - Partly cloudy 10 - - - -
31/03:00pm 29.2 ESE 14 20 1014.3 - 0.6 Recent precip. - 10 - - - -
31/02:30pm 27.5 ESE 11 17 1014.5 - 0.4 - Cloudy 10 - - - -
31/02:00pm 24.7 E 11 15 1015.0 - 0.4 - Partly cloudy 10 - - - -
31/01:45pm 24.8 E 16 23 1015.4 - 0.2 - Partly cloudy 10 - - - -
31/01:30pm 29.8 ESE 12 19 1015.4 - 0.2 - Partly cloudy 10 - - - -
31/01:00pm 28.6 SE 14 19 1015.9 - 0.2 - Partly cloudy 10 - - - -
31/12:30pm 28.3 SE 13 18 1016.2 - 0.2 - Partly cloudy 10 - - - -
31/12:00pm 28.0 ESE 14 21 1016.8 - 0.2 - Cloudy 10 - - - -
31/11:30am 28.7 SE 12 16 1017.4 - 0.2 - Partly cloudy 10 - - - -
31/11:00am 28.5 ESE 11 15 1017.9 - 0.2 - Partly cloudy 10 - - - -
31/10:30am 27.6 SSE 9 11 1018.3 - 0.2 - Partly cloudy 10 - - - -
31/10:00am 26.6 SSE 11 18 1018.3 - 0.0 - Partly cloudy 10 - - - -
31/09:30am 24.1 SSE 14 20 1018.4 - 0.0 - Partly cloudy 10 - - - -
31/09:00am 24.1 SSE 15 23 1018.4 - 6.4 - Cloudy 10 - - - -
31/08:30am 23.5 SSE 11 17 1018.3 - 6.4 - Partly cloudy 10 - - - -
31/08:00am 23.3 SSE 11 15 1018.0 - 6.4 - Partly cloudy 10 - - - -
31/07:42am 23.2 SSE 9 14 1017.8 - 6.4 - Partly cloudy 10 - - - -
31/07:30am 22.9 SSE 10 14 1017.7 - 6.4 - Partly cloudy 6 - - - -
31/07:27am 22.9 SSE 10 15 1017.7 - 6.2 - Partly cloudy 6 - - - -
31/07:19am 23.0 SSE 7 15 1017.5 - 5.4 - Partly cloudy 10 - - - -
31/07:00am 22.9 S 3 4 1017.1 - 5.4 - Partly cloudy 10 - - - -
31/06:30am 22.8 S 5 6 1016.6 - 5.4 - Partly cloudy 10 - - - -
31/06:00am 22.9 NE 3 4 1016.3 - 5.4 Rain Cloudy 10 - - - -
31/05:30am 22.9 SSE 8 11 1016.3 - 5.2 - Partly cloudy 10 - - - -
31/05:03am 23.1 SSE 6 9 1016.0 - 5.2 - Partly cloudy 10 - - - -
31/05:00am 23.1 SSE 7 9 1016.0 - 5.2 - Partly cloudy 10 - - - -
31/04:53am 23.1 SSE 5 11 1016.0 - 5.2 - Partly cloudy 10 - - - -
31/04:48am 23.2 SE 3 7 1016.0 - 5.2 - Partly cloudy 10 - - - -
31/04:30am 23.1 CALM 0 5 1015.7 - 5.2 - Partly cloudy 3 - - - -
31/04:27am 23.2 NE 1 4 1015.8 - 4.6 - Partly cloudy 5 - - - -
31/04:00am 23.1 S 6 9 1015.7 - 3.4 - Partly cloudy 10 - - - -
31/03:30am 23.3 S 7 9 1015.5 - 3.4 - Partly cloudy 10 - - - -
31/03:00am 23.4 S 6 8 1015.8 - 2.6 Recent precip. Cloudy 10 - - - -
31/02:30am 23.3 SSE 5 9 1016.0 - 2.6 - Partly cloudy 10 - - - -
31/02:00am 23.5 S 7 10 1016.1 - 2.4 - Partly cloudy 10 - - - -
31/01:30am 23.4 S 7 11 1016.5 - 2.4 - Partly cloudy 10 - - - -
31/01:10am 23.4 S 9 12 1016.7 - 2.4 - Partly cloudy 10 - - - -
31/01:00am 23.5 S 8 11 1016.8 - 2.4 - Partly cloudy 6 - - - -
31/12:51am 23.5 SSE 9 13 1016.9 - 1.8 - Partly cloudy 6 - - - -
31/12:46am 23.7 SSE 10 13 1017.0 - 1.0 - Partly cloudy 10 - - - -
31/12:30am 23.6 SSE 7 12 1017.2 - 1.0 - Partly cloudy 10 - - - -
31/12:16am 23.7 SSE 5 7 1017.4 - 1.0 - Partly cloudy 10 - - - -
31/12:15am 23.7 SSE 5 7 1017.4 - 1.0 - Partly cloudy 10 - - - -
31/12:00am 23.6 SSE 4 6 1017.6 - 0.6 Rain Cloudy 5 - - - -
 
Date/Time
EST
Temp

°C
Wind Pressure Rain
since 9am
mm
Weather Cloud Vis
km
Sea
Height
m
Swell
Dir
 
Speed
knots
Gust
knots
hPa Trend Height
m
Period
s
Dir
30/11:58pm 23.7 SSE 4 5 1017.6 - 0.4 - Partly cloudy 6 - - - -
30/11:30pm 23.6 SSE 6 7 1017.7 - 0.0 - Partly cloudy 10 - - - -
30/11:00pm 23.7 S 7 10 1017.9 - 0.0 - Partly cloudy 10 - - - -
30/10:30pm 24.1 SSE 8 11 1018.0 - 0.0 - - 10 - - - -
30/10:00pm 24.1 SSE 7 10 1018.3 - 0.0 - Partly cloudy 10 - - - -
30/09:30pm 24.1 SSE 7 9 1018.4 - 0.0 - Partly cloudy 10 - - - -
30/09:00pm 24.3 SSE 8 11 1018.5 - 0.0 - Mostly clear 10 - - - -
30/08:30pm 24.6 SSE 8 11 1018.4 - 0.0 - - 10 - - - -
30/08:00pm 24.9 SSE 7 10 1018.2 - 0.0 - Partly cloudy 10 - - - -
30/07:30pm 25.6 ESE 7 8 1017.7 - 0.0 - - 10 - - - -
30/07:00pm 25.9 ESE 6 8 1017.4 - 0.0 - Partly cloudy 10 - - - -
30/06:30pm 26.8 ESE 9 12 1017.3 - 0.0 - Partly cloudy 10 - - - -
30/06:00pm 27.6 ESE 7 11 1016.9 - 0.0 - Partly cloudy 10 - - - -
30/05:30pm 28.7 SE 11 13 1016.7 - 0.0 - Partly cloudy 10 - - - -
30/05:00pm 29.2 ESE 11 15 1016.4 - 0.0 - Partly cloudy 10 - - - -
30/04:30pm 29.7 ESE 11 16 1016.1 - 0.0 - - 10 - - - -
30/04:00pm 30.1 ESE 13 18 1016.0 - 0.0 - Partly cloudy 10 - - - -
30/03:30pm 30.0 SE 12 16 1015.8 - 0.0 - Partly cloudy 10 - - - -
30/03:00pm 30.9 ESE 13 19 1015.6 - 0.0 - Mostly clear 10 - - - -
30/02:30pm 30.5 ESE 13 17 1015.6 - 0.0 - Partly cloudy 10 - - - -

Other Formats:

Comma delimited format used in spreadsheet applications
http://www.bom.gov.au/fwo/IDQ60701/IDQ60701.94365.axf

JavaScript Object Notation format (JSON) in row-major order
http://www.bom.gov.au/fwo/IDQ60701/IDQ60701.94365.json